Time;durP1;ratioP1;P1;durP2;ratioP2;P2;SDS_P1;SDS_P2;PMS_P1;PMS_P2;Temp;Humidity;BMP_temperature;BMP_pressure;BME280_temperature;BME280_humidity;BME280_pressure;Samples;Min_cycle;Max_cycle;Signal;HPM_P1;HPM_P2
2021/04/14 00:00:45;;;;;;;2.60;2.40;;;;;;;3.73;48.97;97746.78;5093132;28;20182;-71
2021/04/14 00:03:32;;;;;;;3.93;3.00;;;;;;;3.87;48.88;97747.69;5084389;28;20197;-69
2021/04/14 00:05:58;;;;;;;5.70;2.63;;;;;;;3.87;48.82;97742.50;5092675;28;20206;-70
2021/04/14 00:08:27;;;;;;;4.37;3.07;;;;;;;3.73;49.08;97746.78;5081592;28;20460;-71
2021/04/14 00:10:53;;;;;;;4.57;2.67;;;;;;;3.83;48.92;97744.47;5092271;28;20428;-69
2021/04/14 00:13:22;;;;;;;5.40;3.40;;;;;;;3.88;48.69;97739.78;5091162;28;20450;-71
2021/04/14 00:15:52;;;;;;;4.63;2.70;;;;;;;3.90;48.95;97737.13;5092810;28;20443;-70
2021/04/14 00:18:19;;;;;;;3.90;2.80;;;;;;;3.78;48.61;97734.34;5092374;28;20524;-70
2021/04/14 00:20:45;;;;;;;4.03;3.30;;;;;;;3.80;48.85;97742.88;5091339;28;20986;-70
2021/04/14 00:23:11;;;;;;;5.87;3.23;;;;;;;3.87;48.92;97737.31;5088134;28;20420;-70
2021/04/14 00:25:42;;;;;;;3.10;2.80;;;;;;;3.77;49.33;97732.72;5086937;28;20969;-70
2021/04/14 00:28:09;;;;;;;4.40;2.70;;;;;;;3.81;48.77;97731.56;5096503;28;20468;-70
2021/04/14 00:30:34;;;;;;;3.60;3.20;;;;;;;3.66;49.58;97735.97;5085793;28;20472;-70
2021/04/14 00:33:00;;;;;;;6.00;3.73;;;;;;;3.59;49.38;97723.47;5093713;28;20502;-70
2021/04/14 00:35:26;;;;;;;3.13;2.53;;;;;;;3.57;49.70;97730.50;5092847;28;20201;-69
2021/04/14 00:37:52;;;;;;;3.00;2.70;;;;;;;3.68;48.88;97726.34;5078427;28;20182;-68
2021/04/14 00:40:37;;;;;;;4.20;3.30;;;;;;;3.70;49.30;97721.03;5090811;28;20661;-69
2021/04/14 00:43:12;;;;;;;6.47;3.57;;;;;;;3.31;50.71;97726.03;5085004;28;20182;-68
2021/04/14 00:45:38;;;;;;;3.00;2.73;;;;;;;3.31;50.97;97726.03;5090558;28;20906;-68
2021/04/14 00:48:05;;;;;;;4.80;3.07;;;;;;;3.30;50.75;97726.94;5082832;28;20604;-68
2021/04/14 00:50:31;;;;;;;4.57;3.00;;;;;;;3.21;51.21;97720.56;5085966;28;20285;-69
2021/04/14 00:52:56;;;;;;;4.87;3.60;;;;;;;3.07;51.52;97723.16;5065639;28;20416;-68
2021/04/14 00:55:26;;;;;;;4.63;3.43;;;;;;;3.13;51.48;97724.53;5085366;28;20212;-68
2021/04/14 00:57:51;;;;;;;8.57;3.77;;;;;;;2.95;52.11;97718.72;5090398;28;20262;-68
2021/04/14 01:00:30;;;;;;;4.90;3.30;;;;;;;2.91;52.34;97715.47;5091783;28;20512;-69
2021/04/14 01:02:56;;;;;;;3.77;2.87;;;;;;;2.57;53.18;97714.91;5091232;28;20189;-67
2021/04/14 01:05:23;;;;;;;4.80;2.70;;;;;;;2.74;53.11;97716.50;5091841;28;20439;-68
2021/04/14 01:07:48;;;;;;;3.93;2.80;;;;;;;2.70;52.83;97705.50;5087897;28;20237;-68
2021/04/14 01:10:16;;;;;;;5.10;3.80;;;;;;;2.78;52.74;97706.78;5054399;28;20969;-68
2021/04/14 01:12:42;;;;;;;5.03;2.90;;;;;;;2.74;52.59;97703.53;5089096;28;20240;-69
2021/04/14 01:15:11;;;;;;;3.40;2.60;;;;;;;2.35;53.86;97704.94;5090952;28;20473;-69
2021/04/14 01:17:38;;;;;;;6.13;2.77;;;;;;;2.37;53.66;97697.94;5091402;28;20435;-68
2021/04/14 01:20:06;;;;;;;3.97;3.20;;;;;;;2.66;53.16;97695.38;5091521;28;20816;-67
2021/04/14 01:22:32;;;;;;;4.37;3.00;;;;;;;2.95;52.45;97698.00;5089881;28;20423;-68
2021/04/14 01:24:57;;;;;;;4.63;3.03;;;;;;;2.97;52.14;97696.97;5091509;28;20480;-67
2021/04/14 01:27:23;;;;;;;5.30;3.00;;;;;;;3.04;52.02;97687.06;5091170;28;20456;-68
2021/04/14 01:29:49;;;;;;;11.57;2.90;;;;;;;3.14;51.62;97701.16;5085071;28;20269;-68
2021/04/14 01:32:14;;;;;;;4.00;3.10;;;;;;;3.14;51.50;97693.38;5089895;28;20254;-68
2021/04/14 01:34:40;;;;;;;3.10;2.80;;;;;;;3.14;51.58;97697.72;5091113;28;20680;-68
2021/04/14 01:37:05;;;;;;;2.70;2.50;;;;;;;3.09;51.72;97703.19;5090093;28;20193;-67
2021/04/14 01:39:31;;;;;;;5.87;2.70;;;;;;;3.18;51.50;97697.44;5079790;28;20170;-68
2021/04/14 01:41:57;;;;;;;3.70;3.27;;;;;;;3.09;51.26;97690.22;5083951;28;20601;-67
2021/04/14 01:44:23;;;;;;;4.67;3.10;;;;;;;2.95;51.63;97696.25;5091283;28;20178;-67
2021/04/14 01:46:48;;;;;;;4.43;2.90;;;;;;;2.81;52.10;97697.06;5091282;28;20181;-68
2021/04/14 01:49:14;;;;;;;5.33;2.60;;;;;;;2.71;52.44;97690.78;5090850;28;20516;-68
2021/04/14 01:51:40;;;;;;;3.73;2.70;;;;;;;2.88;52.41;97693.19;5090711;28;20197;-67
2021/04/14 01:54:05;;;;;;;6.83;3.17;;;;;;;3.02;52.09;97689.75;5090843;28;20193;-69
2021/04/14 01:56:31;;;;;;;3.83;3.03;;;;;;;2.89;52.61;97691.44;5091658;28;20205;-67
2021/04/14 01:58:57;;;;;;;6.13;2.50;;;;;;;2.56;52.96;97690.75;5091012;28;20933;-67
2021/04/14 02:01:22;;;;;;;4.47;3.03;;;;;;;2.64;52.91;97690.31;5091142;28;20174;-68
2021/04/14 02:03:48;;;;;;;5.03;3.00;;;;;;;2.76;52.63;97683.56;5091157;28;20234;-67
2021/04/14 02:06:16;;;;;;;4.00;2.50;;;;;;;2.80;52.46;97685.03;5091160;28;20205;-66
2021/04/14 02:08:42;;;;;;;12.03;3.33;;;;;;;2.81;52.19;97688.47;5077703;28;20202;-67
2021/04/14 02:11:14;;;;;;;4.10;3.23;;;;;;;2.79;52.65;97683.38;5093127;28;20869;-67
2021/04/14 02:13:42;;;;;;;4.23;3.00;;;;;;;2.65;53.05;97684.22;5094969;28;20510;-68
2021/04/14 02:16:12;;;;;;;5.80;2.90;;;;;;;2.74;52.96;97682.84;5094854;28;20917;-68
2021/04/14 02:18:38;;;;;;;3.87;2.70;;;;;;;2.67;53.09;97686.69;5093976;28;20498;-67
2021/04/14 02:21:04;;;;;;;4.73;3.00;;;;;;;2.72;53.20;97684.66;5085788;28;20846;-67
2021/04/14 02:23:36;;;;;;;3.50;2.80;;;;;;;2.79;52.77;97680.78;5095254;28;20269;-67
2021/04/14 02:26:08;;;;;;;5.40;2.63;;;;;;;2.71;53.09;97677.84;5094768;28;20477;-67
2021/04/14 02:28:34;;;;;;;4.70;2.90;;;;;;;2.59;53.29;97676.78;5094086;28;20910;-67
2021/04/14 02:31:00;;;;;;;4.70;2.87;;;;;;;2.56;53.59;97682.16;5085880;28;20452;-66
2021/04/14 02:33:26;;;;;;;4.20;2.90;;;;;;;2.56;53.60;97685.56;5094366;28;20539;-68
2021/04/14 02:35:53;;;;;;;3.17;2.60;;;;;;;2.40;53.72;97683.06;5092398;28;20435;-68
2021/04/14 02:38:20;;;;;;;4.53;2.50;;;;;;;2.42;53.90;97688.13;5082549;28;20429;-67
2021/04/14 02:40:46;;;;;;;3.77;3.00;;;;;;;2.42;53.63;97676.03;5094286;28;20423;-67
2021/04/14 02:43:11;;;;;;;5.67;3.00;;;;;;;2.67;52.90;97679.78;5091271;28;20925;-67
2021/04/14 02:45:38;;;;;;;8.30;3.00;;;;;;;2.53;53.37;97677.16;5088623;28;20197;-68
2021/04/14 02:48:05;;;;;;;5.13;2.90;;;;;;;2.40;53.91;97672.72;5092871;28;20557;-68
2021/04/14 02:50:31;;;;;;;4.20;3.27;;;;;;;2.35;53.66;97671.31;5095358;28;20422;-68
2021/04/14 02:52:57;;;;;;;4.13;3.20;;;;;;;2.33;54.34;97665.38;5099812;28;20416;-68
2021/04/14 02:55:25;;;;;;;4.23;2.90;;;;;;;2.34;54.86;97667.06;5102557;28;20258;-66
2021/04/14 02:57:51;;;;;;;5.47;3.80;;;;;;;2.35;54.91;97666.97;5087032;28;20432;-70
2021/04/14 03:00:18;;;;;;;5.00;3.00;;;;;;;2.28;54.65;97655.31;5094600;28;20971;-67
2021/04/14 03:02:44;;;;;;;5.80;2.80;;;;;;;2.39;54.26;97670.22;5093068;28;20261;-66
2021/04/14 03:05:11;;;;;;;3.60;3.30;;;;;;;2.05;55.02;97669.56;5085261;28;20451;-66
2021/04/14 03:07:37;;;;;;;3.43;2.90;;;;;;;2.28;54.67;97663.06;5087073;28;20540;-66
2021/04/14 03:10:04;;;;;;;6.53;2.80;;;;;;;2.30;54.41;97667.22;5088853;28;20416;-65
2021/04/14 03:21:06;;;;;;;5.63;2.57;;;;;;;2.71;53.39;97652.75;5926653;22;21575;-66
2021/04/14 03:23:32;;;;;;;3.83;3.33;;;;;;;2.84;53.09;97655.47;5005352;28;20457;-68
2021/04/14 03:25:58;;;;;;;3.97;3.07;;;;;;;2.90;52.77;97644.72;5002702;28;20478;-67
2021/04/14 03:28:23;;;;;;;10.33;3.53;;;;;;;2.90;52.50;97649.91;5007906;28;20265;-67
2021/04/14 03:30:49;;;;;;;3.47;3.17;;;;;;;2.91;52.70;97648.97;5008427;28;20286;-68
2021/04/14 03:33:15;;;;;;;5.90;2.77;;;;;;;2.70;52.94;97639.91;5013441;28;20618;-66
2021/04/14 03:35:40;;;;;;;6.67;3.40;;;;;;;2.74;52.79;97644.81;5007413;28;20604;-67
2021/04/14 03:38:06;;;;;;;8.00;3.60;;;;;;;2.77;52.89;97633.47;4993805;28;20230;-67
2021/04/14 03:40:32;;;;;;;6.47;3.27;;;;;;;2.54;52.96;97646.00;5012962;28;20212;-66
2021/04/14 03:42:58;;;;;;;4.40;3.00;;;;;;;2.43;53.54;97643.22;5011717;28;20176;-67
2021/04/14 03:45:39;;;;;;;5.43;4.17;;;;;;;2.36;53.91;97640.16;5006641;28;20442;-67
2021/04/14 03:48:05;;;;;;;4.63;3.97;;;;;;;2.40;53.95;97636.50;5004241;28;20726;-67
2021/04/14 03:50:31;;;;;;;4.73;3.37;;;;;;;2.44;54.07;97637.13;5012339;28;20464;-68
2021/04/14 03:53:10;;;;;;;4.80;3.70;;;;;;;2.35;54.22;97635.91;5016059;28;20795;-67
2021/04/14 03:55:36;;;;;;;8.77;3.60;;;;;;;2.29;54.32;97629.34;5013227;28;20454;-66
2021/04/14 03:58:02;;;;;;;4.97;3.40;;;;;;;2.22;54.81;97634.97;4995798;28;20518;-66
2021/04/14 04:00:27;;;;;;;5.67;3.40;;;;;;;2.28;54.86;97637.22;5012516;28;20196;-67
2021/04/14 04:02:53;;;;;;;5.53;3.73;;;;;;;2.22;54.80;97632.38;5012953;28;20442;-67
2021/04/14 04:05:18;;;;;;;4.43;3.10;;;;;;;2.20;54.72;97642.00;5015024;28;20184;-67
2021/04/14 04:07:44;;;;;;;7.23;3.20;;;;;;;2.18;54.70;97631.72;5015068;28;20183;-66
2021/04/14 04:10:10;;;;;;;5.00;3.57;;;;;;;2.18;54.67;97647.25;5013613;28;20180;-67
2021/04/14 04:12:36;;;;;;;3.60;3.13;;;;;;;2.24;54.46;97639.16;5012780;28;20222;-67
2021/04/14 04:15:04;;;;;;;7.10;3.30;;;;;;;2.16;55.16;97638.75;5011611;28;20454;-67
2021/04/14 04:17:29;;;;;;;5.73;3.27;;;;;;;2.30;54.49;97643.13;5012075;28;20526;-67
2021/04/14 04:19:55;;;;;;;3.40;3.07;;;;;;;1.89;55.29;97639.41;5012231;28;20833;-67
2021/04/14 04:22:21;;;;;;;6.47;3.00;;;;;;;1.53;57.00;97633.66;5012663;28;20208;-67
2021/04/14 04:24:50;;;;;;;9.50;3.30;;;;;;;1.69;56.40;97636.19;5025552;28;20638;-67
2021/04/14 04:27:17;;;;;;;9.23;3.60;;;;;;;1.89;55.74;97636.00;5047331;28;20715;-67
2021/04/14 04:29:42;;;;;;;4.50;3.13;;;;;;;2.07;55.48;97637.53;5030267;28;20466;-67
2021/04/14 04:32:08;;;;;;;5.37;3.10;;;;;;;2.07;55.24;97639.28;5031667;28;21019;-65
2021/04/14 04:34:34;;;;;;;6.40;3.40;;;;;;;2.14;55.08;97640.59;5031000;28;20182;-67
2021/04/14 04:36:59;;;;;;;6.57;3.30;;;;;;;2.11;55.44;97645.94;5024501;28;20188;-69
2021/04/14 04:39:25;;;;;;;10.63;3.83;;;;;;;2.14;55.27;97641.44;5034648;28;20188;-66
2021/04/14 04:41:51;;;;;;;6.20;3.90;;;;;;;2.32;55.15;97645.63;5034214;28;20657;-68
2021/04/14 04:44:17;;;;;;;4.73;3.50;;;;;;;2.43;54.97;97646.66;5031787;28;20184;-66
2021/04/14 04:46:42;;;;;;;4.10;3.27;;;;;;;2.52;54.45;97652.22;5031940;28;20195;-66
2021/04/14 04:49:08;;;;;;;6.67;3.30;;;;;;;2.49;54.14;97648.06;5030829;28;20470;-66
2021/04/14 04:51:34;;;;;;;7.83;3.30;;;;;;;2.38;54.67;97647.84;5031718;28;20311;-66
2021/04/14 04:53:59;;;;;;;5.70;3.90;;;;;;;2.51;54.73;97647.94;5020665;28;20781;-67
2021/04/14 04:56:25;;;;;;;11.33;3.43;;;;;;;2.62;54.32;97655.91;5032404;28;20708;-67
2021/04/14 04:58:51;;;;;;;16.43;3.93;;;;;;;2.58;53.89;97657.84;5031622;28;20298;-67
2021/04/14 05:01:17;;;;;;;5.83;3.70;;;;;;;2.26;55.27;97660.59;5031340;28;20219;-68
2021/04/14 05:03:42;;;;;;;4.73;3.30;;;;;;;2.02;56.17;97659.41;5034621;28;20198;-67
2021/04/14 05:06:08;;;;;;;4.10;3.43;;;;;;;2.25;55.36;97658.06;5030668;28;20469;-68
2021/04/14 05:08:34;;;;;;;6.10;4.27;;;;;;;2.08;56.14;97662.47;5033827;28;20212;-67
2021/04/14 05:10:59;;;;;;;6.40;4.60;;;;;;;2.21;56.20;97667.78;5025881;28;20284;-67
2021/04/14 05:13:25;;;;;;;7.63;4.53;;;;;;;2.46;55.48;97656.00;5029551;28;20203;-67
2021/04/14 05:15:51;;;;;;;6.23;4.10;;;;;;;2.69;54.81;97666.72;5031382;28;20636;-66
2021/04/14 05:18:17;;;;;;;10.40;4.03;;;;;;;2.85;54.47;97661.47;5019479;28;20190;-67
2021/04/14 05:20:42;;;;;;;8.37;4.30;;;;;;;2.81;54.17;97666.00;5030008;28;20207;-67
2021/04/14 05:23:09;;;;;;;5.93;4.10;;;;;;;3.03;53.99;97659.50;5035279;28;20936;-67
2021/04/14 05:25:38;;;;;;;11.10;3.90;;;;;;;3.14;53.59;97657.13;5041561;28;20194;-66
2021/04/14 05:28:09;;;;;;;6.83;4.47;;;;;;;3.18;53.25;97668.94;5042822;28;20497;-67
2021/04/14 05:30:35;;;;;;;6.50;4.23;;;;;;;3.34;52.90;97662.81;5032357;28;20520;-66
2021/04/14 05:33:01;;;;;;;7.67;5.53;;;;;;;3.50;52.62;97657.50;5031890;28;20465;-67
2021/04/14 05:35:27;;;;;;;9.30;5.20;;;;;;;3.54;52.72;97664.97;5047980;28;20492;-68
2021/04/14 05:37:52;;;;;;;12.27;6.40;;;;;;;3.64;52.48;97675.59;5031892;28;20274;-67
2021/04/14 05:40:18;;;;;;;10.10;5.70;;;;;;;3.75;51.86;97667.16;5031004;28;20442;-67
2021/04/14 05:42:46;;;;;;;18.27;7.40;;;;;;;3.75;51.43;97672.34;5032082;28;20241;-67
2021/04/14 05:45:19;;;;;;;9.83;4.63;;;;;;;3.69;50.77;97676.16;5016483;28;20487;-66
2021/04/14 05:47:44;;;;;;;10.30;4.40;;;;;;;3.65;51.55;97679.84;5037426;28;20529;-66
2021/04/14 05:50:13;;;;;;;10.83;4.57;;;;;;;3.65;51.45;97681.63;5033817;28;21064;-68
2021/04/14 05:52:38;;;;;;;15.40;5.63;;;;;;;3.98;50.74;97683.81;5034060;28;20586;-67
2021/04/14 05:55:04;;;;;;;111.80;21.63;;;;;;;4.25;50.36;97679.53;5035564;28;20437;-68
2021/04/14 05:57:30;;;;;;;18.70;6.00;;;;;;;4.53;49.67;97680.31;5035324;28;20180;-68
2021/04/14 05:59:56;;;;;;;9.53;3.90;;;;;;;4.67;48.96;97681.97;5035150;28;20440;-68
2021/04/14 06:02:21;;;;;;;8.10;3.50;;;;;;;4.65;48.44;97689.00;5035037;28;20328;-66
2021/04/14 06:04:47;;;;;;;4.63;3.33;;;;;;;5.11;47.38;97687.66;5035015;28;20271;-67
2021/04/14 06:07:12;;;;;;;4.10;3.33;;;;;;;5.56;46.61;97682.75;5035689;28;20271;-67
2021/04/14 06:09:38;;;;;;;4.40;4.00;;;;;;;5.94;45.15;97686.97;5034492;28;20618;-67
2021/04/14 06:12:04;;;;;;;4.50;3.37;;;;;;;6.28;44.23;97681.97;5033123;28;20677;-65
2021/04/14 06:14:30;;;;;;;6.33;3.57;;;;;;;6.52;43.75;97678.47;5034910;28;20198;-67
2021/04/14 06:16:55;;;;;;;18.17;4.00;;;;;;;5.80;44.95;97690.59;5034488;28;20434;-67
2021/04/14 06:19:21;;;;;;;8.90;3.93;;;;;;;4.84;47.67;97693.78;5035452;28;20186;-68
2021/04/14 06:21:47;;;;;;;8.73;3.90;;;;;;;5.18;46.40;97686.28;5035075;28;20205;-67
2021/04/14 06:24:13;;;;;;;5.50;3.83;;;;;;;5.58;46.08;97685.25;5034914;28;20564;-67
2021/04/14 06:29:04;;;;;;;5.60;4.17;;;;;;;6.59;44.04;97687.47;5035443;28;20472;-67
2021/04/14 06:31:39;;;;;;;7.70;4.20;;;;;;;6.81;44.19;97691.03;5034977;28;20793;-67
2021/04/14 06:34:13;;;;;;;4.90;3.40;;;;;;;7.06;43.16;97692.63;5044910;28;20186;-67
2021/04/14 06:36:39;;;;;;;5.97;3.60;;;;;;;7.20;43.25;97691.53;5033617;28;20931;-67
2021/04/14 06:39:05;;;;;;;7.77;3.40;;;;;;;7.63;41.98;97686.53;5034965;28;20506;-67
2021/04/14 06:41:52;;;;;;;6.93;3.60;;;;;;;7.03;42.15;97684.22;5040330;28;20831;-67
2021/04/14 06:44:43;;;;;;;6.47;2.97;;;;;;;7.04;42.05;97685.88;5049114;28;20436;-66
2021/04/14 06:47:20;;;;;;;5.83;3.10;;;;;;;7.69;41.39;97683.41;5034929;28;20513;-67
2021/04/14 06:49:54;;;;;;;4.13;3.10;;;;;;;7.98;40.62;97690.69;5033635;28;20464;-68
2021/04/14 06:52:43;;;;;;;5.93;2.77;;;;;;;8.21;40.06;97685.38;5035072;28;20442;-66
2021/04/14 06:55:13;;;;;;;3.10;2.63;;;;;;;7.94;39.95;97682.28;5026112;28;20526;-68
2021/04/14 06:57:42;;;;;;;2.40;2.20;;;;;;;7.33;41.18;97690.59;5032105;28;20612;-65
2021/04/14 07:00:29;;;;;;;7.47;3.17;;;;;;;7.55;40.93;97687.13;5033920;28;20434;-67
2021/04/14 07:02:59;;;;;;;7.87;2.80;;;;;;;6.73;42.46;97683.00;5035676;28;20434;-67
2021/04/14 07:05:30;;;;;;;4.50;2.60;;;;;;;6.77;43.14;97687.03;5049908;28;20643;-67
2021/04/14 07:07:58;;;;;;;5.70;2.60;;;;;;;7.26;42.16;97685.00;5045030;28;20498;-66
2021/04/14 07:10:27;;;;;;;5.60;3.20;;;;;;;7.43;41.58;97682.88;5033160;28;20838;-68
2021/04/14 07:12:54;;;;;;;6.63;3.20;;;;;;;7.28;41.96;97690.94;5050052;28;20492;-68
2021/04/14 07:15:21;;;;;;;7.17;3.50;;;;;;;7.62;41.66;97690.06;5033324;28;20839;-68
2021/04/14 07:18:22;;;;;;;4.90;3.20;;;;;;;7.59;41.76;97687.69;5035510;28;20434;-70
2021/04/14 07:21:14;;;;;;;5.97;3.37;;;;;;;7.19;42.47;97695.09;5015371;28;20457;-68
2021/04/14 07:23:47;;;;;;;9.87;3.73;;;;;;;6.27;44.06;97682.91;5029873;28;20516;-68
2021/04/14 07:26:19;;;;;;;8.40;3.73;;;;;;;5.48;45.37;97695.47;5016383;28;20530;-68
2021/04/14 07:29:13;;;;;;;16.60;4.97;;;;;;;4.65;48.88;97692.47;5049008;28;20462;-68
2021/04/14 07:31:58;;;;;;;11.20;4.13;;;;;;;5.92;46.65;97690.63;5030248;28;20442;-68
2021/04/14 07:34:33;;;;;;;18.43;4.93;;;;;;;6.51;45.00;97688.97;5032400;28;20433;-68
2021/04/14 07:37:09;;;;;;;6.60;5.13;;;;;;;6.78;44.92;97685.25;5048754;28;20418;-69
2021/04/14 07:39:37;;;;;;;9.40;4.90;;;;;;;6.66;45.08;97682.63;5040341;28;20434;-67
2021/04/14 07:42:07;;;;;;;9.53;5.40;;;;;;;6.91;44.78;97676.38;5033034;28;20525;-67
2021/04/14 07:44:44;;;;;;;10.63;5.50;;;;;;;7.13;44.73;97679.94;5047789;28;20792;-68
2021/04/14 07:47:11;;;;;;;14.53;6.10;;;;;;;6.86;44.96;97681.13;5035423;28;20445;-69
2021/04/14 07:49:37;;;;;;;6.70;5.00;;;;;;;7.57;43.98;97680.00;5033039;28;21222;-69
2021/04/14 07:52:06;;;;;;;10.33;5.63;;;;;;;7.18;43.98;97684.78;5032744;28;20474;-68
2021/04/14 07:54:42;;;;;;;11.80;5.87;;;;;;;6.68;45.44;97683.34;5033212;28;20195;-69
2021/04/14 07:57:09;;;;;;;15.10;6.20;;;;;;;6.12;46.72;97686.63;5026531;28;20449;-68
2021/04/14 07:59:38;;;;;;;13.80;5.07;;;;;;;6.27;46.03;97685.50;5032666;28;20449;-67
2021/04/14 08:02:04;;;;;;;9.53;5.37;;;;;;;6.70;45.10;97689.28;5033057;28;20476;-67
2021/04/14 08:04:37;;;;;;;10.33;4.70;;;;;;;6.13;46.19;97677.88;5029329;28;20419;-68
2021/04/14 08:07:24;;;;;;;10.17;5.00;;;;;;;7.31;43.93;97685.50;5026043;28;20439;-68
2021/04/14 08:09:53;;;;;;;11.47;5.27;;;;;;;7.73;42.54;97679.59;5032716;28;20466;-69
2021/04/14 08:12:33;;;;;;;9.47;4.30;;;;;;;7.80;42.32;97677.34;5033176;28;20457;-69
2021/04/14 08:15:09;;;;;;;5.10;3.63;;;;;;;7.97;42.29;97675.97;5025049;28;20560;-68
2021/04/14 08:17:35;;;;;;;5.57;3.93;;;;;;;7.16;43.18;97676.25;5033455;28;20964;-69
2021/04/14 08:20:05;;;;;;;11.00;3.87;;;;;;;7.22;43.93;97683.63;5032898;28;20433;-69
2021/04/14 08:22:31;;;;;;;5.77;4.07;;;;;;;6.70;43.97;97680.59;5033243;28;20487;-68
2021/04/14 08:25:02;;;;;;;12.73;4.57;;;;;;;6.94;44.16;97679.69;5031958;28;21180;-70
2021/04/14 08:27:34;;;;;;;9.30;4.50;;;;;;;7.71;42.45;97663.25;5033580;28;20513;-69
2021/04/14 08:30:28;;;;;;;8.30;4.03;;;;;;;8.52;41.82;97662.81;5024975;28;20476;-69
2021/04/14 08:32:54;;;;;;;16.90;4.23;;;;;;;8.39;40.94;97660.38;5032463;28;20438;-68
2021/04/14 08:35:42;;;;;;;5.33;3.20;;;;;;;8.41;40.36;97661.06;5033308;28;20427;-68
2021/04/14 08:38:24;;;;;;;15.53;4.83;;;;;;;8.76;39.58;97664.31;5041611;28;20283;-70
2021/04/14 08:40:57;;;;;;;8.70;4.20;;;;;;;9.11;39.09;97662.28;5032816;28;20537;-69
2021/04/14 08:43:45;;;;;;;6.53;4.20;;;;;;;8.74;39.67;97661.84;5034321;28;20434;-69
2021/04/14 08:46:19;;;;;;;10.00;4.97;;;;;;;9.14;39.38;97669.88;5033587;28;20460;-69
2021/04/14 08:48:50;;;;;;;8.87;4.87;;;;;;;8.58;40.25;97659.69;5037726;28;20458;-69
2021/04/14 08:51:16;;;;;;;5.77;4.50;;;;;;;8.71;39.89;97662.09;5032017;28;21226;-70
2021/04/14 08:53:43;;;;;;;8.63;4.47;;;;;;;8.51;40.40;97660.34;5033419;28;20528;-70
2021/04/14 08:56:10;;;;;;;10.47;4.57;;;;;;;9.29;38.80;97659.84;5032967;28;20880;-69
2021/04/14 08:58:35;;;;;;;24.53;5.10;;;;;;;9.41;39.20;97650.13;5033123;28;20460;-69
2021/04/14 09:01:01;;;;;;;8.63;4.70;;;;;;;9.80;37.00;97655.44;5037452;28;20451;-68
2021/04/14 09:03:30;;;;;;;6.40;3.93;;;;;;;8.94;39.26;97651.50;5033178;28;20561;-69
2021/04/14 09:05:56;;;;;;;6.50;4.40;;;;;;;8.82;39.26;97653.34;5047779;28;20184;-69
2021/04/14 09:08:24;;;;;;;8.30;4.07;;;;;;;9.33;38.64;97646.38;5035268;28;20527;-70
2021/04/14 09:11:00;;;;;;;7.67;4.03;;;;;;;10.25;36.66;97640.97;5054021;28;20645;-68
2021/04/14 09:13:36;;;;;;;4.17;3.73;;;;;;;10.89;35.46;97641.25;5031752;28;20417;-69
2021/04/14 09:16:04;;;;;;;6.80;4.50;;;;;;;11.16;35.00;97634.38;5033121;28;20780;-72
2021/04/14 09:18:38;;;;;;;7.37;3.90;;;;;;;10.82;34.82;97643.63;5031309;28;20886;-70
2021/04/14 09:21:10;;;;;;;7.40;4.13;;;;;;;10.52;36.01;97631.56;5022714;28;20445;-69
2021/04/14 09:23:39;;;;;;;5.83;3.57;;;;;;;10.05;35.51;97632.28;5031765;28;20856;-67
2021/04/14 09:26:14;;;;;;;8.80;3.67;;;;;;;10.32;35.71;97631.56;5031562;28;21293;-69
2021/04/14 09:28:45;;;;;;;9.00;4.80;;;;;;;10.44;35.34;97633.09;5031922;28;20462;-68
2021/04/14 09:31:39;;;;;;;5.90;3.77;;;;;;;10.06;35.85;97637.38;5032177;28;20486;-71
2021/04/14 09:34:36;;;;;;;6.67;3.50;;;;;;;10.50;34.08;97634.31;5032580;28;20423;-69
2021/04/14 09:37:09;;;;;;;8.03;3.50;;;;;;;10.82;33.51;97622.66;5029411;28;20427;-70
2021/04/14 09:39:40;;;;;;;10.13;3.63;;;;;;;11.06;32.72;97629.19;5032536;28;20430;-68
2021/04/14 09:42:24;;;;;;;5.63;4.07;;;;;;;10.35;33.85;97620.81;5047324;28;20485;-69
2021/04/14 09:44:51;;;;;;;5.30;3.57;;;;;;;10.45;34.12;97628.69;5032126;28;20426;-71
2021/04/14 09:47:20;;;;;;;6.70;3.73;;;;;;;10.51;33.71;97619.44;5032007;28;20919;-71
2021/04/14 09:49:48;;;;;;;5.20;2.80;;;;;;;9.58;32.98;97623.28;5032251;28;20477;-70
2021/04/14 09:52:47;;;;;;;6.33;3.03;;;;;;;9.81;32.35;97608.16;5031704;28;20455;-71
2021/04/14 09:55:41;;;;;;;4.30;2.90;;;;;;;10.51;31.17;97607.16;5031750;28;20434;-70
2021/04/14 09:58:19;;;;;;;3.57;2.90;;;;;;;10.85;31.24;97606.63;5030750;28;20513;-69
2021/04/14 10:00:48;;;;;;;4.53;2.60;;;;;;;11.28;30.83;97600.91;5034366;28;20454;-72
2021/04/14 10:03:30;;;;;;;8.43;2.43;;;;;;;10.47;31.39;97603.16;5031410;28;20446;-71
2021/04/14 10:06:04;;;;;;;8.70;2.70;;;;;;;10.08;32.02;97601.41;5047740;28;20426;-71
2021/04/14 10:08:30;;;;;;;6.90;2.67;;;;;;;10.20;31.11;97591.63;5031152;28;20816;-71
2021/04/14 10:10:55;;;;;;;5.63;2.90;;;;;;;10.56;30.56;97591.84;5029407;28;20457;-71
2021/04/14 10:13:28;;;;;;;9.10;2.80;;;;;;;9.38;31.73;97591.88;5030351;28;20187;-73
2021/04/14 10:15:53;;;;;;;11.10;3.73;;;;;;;10.25;31.96;97581.53;5031595;28;20552;-70
2021/04/14 10:18:25;;;;;;;5.90;2.80;;;;;;;10.56;31.66;97581.34;5031809;28;20454;-69
2021/04/14 10:20:51;;;;;;;8.00;3.10;;;;;;;10.60;31.93;97582.69;5031583;28;20200;-70
2021/04/14 10:23:20;;;;;;;4.50;2.80;;;;;;;10.96;30.64;97586.44;5031366;28;20458;-70
2021/04/14 10:25:46;;;;;;;6.00;2.60;;;;;;;9.60;31.72;97587.34;5030186;28;20430;-71
2021/04/14 10:28:15;;;;;;;4.27;2.30;;;;;;;9.82;31.22;97583.63;5031177;28;20991;-70
2021/04/14 10:31:00;;;;;;;6.57;2.80;;;;;;;9.42;31.84;97581.16;5030612;28;20472;-70
2021/04/14 10:33:26;;;;;;;6.93;2.17;;;;;;;9.41;30.28;97582.09;5035136;28;20429;-69
2021/04/14 10:35:52;;;;;;;3.97;2.20;;;;;;;9.22;30.81;97574.09;5049848;28;20430;-69
2021/04/14 10:38:31;;;;;;;2.53;2.20;;;;;;;9.40;30.72;97585.69;5034626;28;20422;-69
2021/04/14 10:40:57;;;;;;;5.30;2.50;;;;;;;10.83;29.71;97571.88;5032835;28;20817;-71
2021/04/14 10:43:25;;;;;;;5.30;2.97;;;;;;;11.08;30.45;97566.91;5034624;28;20449;-70
2021/04/14 10:45:53;;;;;;;4.03;3.00;;;;;;;11.47;30.56;97558.78;5037125;28;20204;-71
2021/04/14 10:48:19;;;;;;;7.73;3.57;;;;;;;11.55;31.65;97557.22;5034286;28;20549;-69
2021/04/14 10:50:45;;;;;;;4.60;3.30;;;;;;;10.48;32.76;97562.06;5032473;28;20533;-69
2021/04/14 10:53:11;;;;;;;3.17;2.90;;;;;;;9.55;33.78;97560.78;5033844;28;20188;-69
2021/04/14 10:55:46;;;;;;;13.50;3.10;;;;;;;9.28;35.03;97559.66;5049129;28;20423;-69
2021/04/14 10:58:22;;;;;;;5.60;3.43;;;;;;;9.20;35.39;97572.56;5034526;28;20908;-70
2021/04/14 11:00:49;;;;;;;10.63;3.47;;;;;;;9.61;35.13;97568.06;5034232;28;20454;-70
2021/04/14 11:03:17;;;;;;;4.83;3.60;;;;;;;9.29;35.41;97568.31;5034400;28;20441;-70
2021/04/14 11:05:49;;;;;;;9.17;3.70;;;;;;;8.60;36.77;97565.50;5050981;28;20834;-71
2021/04/14 11:08:15;;;;;;;6.50;3.53;;;;;;;9.18;38.33;97570.09;5037405;28;20466;-70
2021/04/14 11:10:41;;;;;;;10.80;3.80;;;;;;;9.25;38.60;97570.38;5049404;28;20521;-70
2021/04/14 11:13:13;;;;;;;4.90;3.70;;;;;;;9.12;39.44;97567.19;5034599;28;20415;-68
2021/04/14 11:15:42;;;;;;;7.17;4.17;;;;;;;8.99;39.19;97564.81;5033104;28;20845;-70
2021/04/14 11:18:09;;;;;;;4.70;4.17;;;;;;;9.22;38.86;97562.78;5027681;28;20423;-70
2021/04/14 11:23:45;;;;;;;4.67;3.80;;;;;;;9.01;36.35;97566.34;4993471;28;20452;-72
2021/04/14 11:26:20;;;;;;;6.50;3.70;;;;;;;9.74;34.96;97559.13;4994509;28;20439;-71
2021/04/14 11:28:49;;;;;;;5.60;3.30;;;;;;;9.51;33.61;97554.16;4976338;28;20464;-71
2021/04/14 11:31:34;;;;;;;4.50;3.40;;;;;;;9.97;33.42;97555.22;4993814;28;20483;-70
2021/04/14 11:34:15;;;;;;;8.83;3.30;;;;;;;10.18;33.63;97556.03;4970197;28;20429;-69
2021/04/14 11:36:41;;;;;;;5.03;3.47;;;;;;;9.94;33.72;97560.78;4980836;28;20487;-69
2021/04/14 11:39:07;;;;;;;5.23;3.20;;;;;;;9.76;33.30;97562.44;4976848;28;20449;-69
2021/04/14 11:41:42;;;;;;;6.00;3.23;;;;;;;9.26;31.80;97556.34;4978556;28;20485;-69
2021/04/14 11:44:38;;;;;;;3.63;3.10;;;;;;;9.95;31.69;97551.97;4968136;28;20262;-70
2021/04/14 11:47:06;;;;;;;3.60;3.33;;;;;;;9.47;31.92;97550.16;4933979;29;20964;-69
2021/04/14 11:49:36;;;;;;;3.47;3.00;;;;;;;9.47;31.68;97547.53;4934237;29;20564;-69
2021/04/14 11:52:20;;;;;;;4.10;3.57;;;;;;;10.03;30.26;97548.59;4933598;29;20451;-69
2021/04/14 11:54:47;;;;;;;5.90;3.60;;;;;;;9.90;29.34;97546.31;4933867;29;20482;-70
2021/04/14 11:57:33;;;;;;;3.77;2.60;;;;;;;10.51;28.32;97543.44;4934139;29;20435;-70
2021/04/14 12:00:10;;;;;;;2.87;2.67;;;;;;;10.35;29.36;97544.00;4969051;28;20556;-69
2021/04/14 12:02:37;;;;;;;3.50;3.10;;;;;;;10.09;29.80;97539.34;4971448;28;20447;-70
2021/04/14 12:05:06;;;;;;;4.80;2.97;;;;;;;10.82;30.17;97532.66;4979386;28;20539;-70